createdAt,value
2019-06-08T00:01:52.578Z,14.89
2019-06-08T00:04:22.962Z,15.07
2019-06-08T00:06:53.217Z,15.07
2019-06-08T00:09:24.086Z,14.84
2019-06-08T00:11:54.459Z,14.84
2019-06-08T00:14:25.591Z,14.70
2019-06-08T00:16:56.024Z,14.66
2019-06-08T00:19:26.186Z,14.59
2019-06-08T00:21:56.382Z,14.46
2019-06-08T00:24:26.586Z,14.49
2019-06-08T00:26:56.748Z,14.46
2019-06-08T00:29:26.932Z,14.46
2019-06-08T00:31:57.139Z,14.40
2019-06-08T00:34:27.312Z,14.46
2019-06-08T00:36:57.505Z,14.46
2019-06-08T00:39:27.663Z,14.46
2019-06-08T00:41:57.856Z,14.50
2019-06-08T00:44:28.027Z,14.50
2019-06-08T00:46:58.239Z,14.49
2019-06-08T00:49:29.116Z,14.48
2019-06-08T00:51:59.414Z,14.45
2019-06-08T00:54:29.861Z,14.49
2019-06-08T00:57:00.078Z,14.52
2019-06-08T00:59:30.510Z,14.53
2019-06-08T01:02:00.718Z,14.53
2019-06-08T01:04:30.914Z,14.44
2019-06-08T01:07:01.143Z,14.44
2019-06-08T01:09:31.304Z,14.45
2019-06-08T01:12:01.494Z,14.45
2019-06-08T01:14:31.754Z,14.47
2019-06-08T01:17:01.956Z,14.45
2019-06-08T01:19:32.144Z,14.44
2019-06-08T01:22:02.363Z,14.51
2019-06-08T01:24:32.592Z,14.48
2019-06-08T01:27:02.760Z,14.48
2019-06-08T01:29:32.969Z,14.56
2019-06-08T01:32:03.182Z,14.44
2019-06-08T01:34:33.442Z,14.44
2019-06-08T01:37:03.653Z,14.44
2019-06-08T01:39:33.839Z,14.43
2019-06-08T01:42:04.020Z,14.49
2019-06-08T01:44:34.234Z,14.49
2019-06-08T01:47:04.479Z,14.54
2019-06-08T01:49:34.684Z,14.54
2019-06-08T01:52:04.890Z,14.53
2019-06-08T01:54:35.087Z,14.44
2019-06-08T01:57:05.413Z,14.42
2019-06-08T01:59:35.596Z,14.42
2019-06-08T02:02:05.791Z,14.48
2019-06-08T02:04:36.017Z,14.49
2019-06-08T02:07:06.290Z,14.49
2019-06-08T02:09:36.627Z,14.49
2019-06-08T02:12:06.818Z,14.56
2019-06-08T02:14:36.999Z,14.56
2019-06-08T02:17:07.211Z,14.67
2019-06-08T02:19:37.408Z,14.76
2019-06-08T02:22:07.624Z,14.87
2019-06-08T02:24:37.795Z,14.99
2019-06-08T02:27:07.982Z,15.05
2019-06-08T02:29:38.143Z,14.82
2019-06-08T02:32:08.359Z,14.62
2019-06-08T02:34:38.609Z,14.54
2019-06-08T02:37:08.801Z,14.54
2019-06-08T02:39:39.969Z,14.52
2019-06-08T02:42:10.336Z,14.52
2019-06-08T02:44:40.830Z,14.59
2019-06-08T02:47:11.102Z,14.65
2019-06-08T02:49:41.305Z,14.71
2019-06-08T02:52:12.049Z,14.83
2019-06-08T02:54:42.246Z,14.76
2019-06-08T02:57:12.548Z,14.79
2019-06-08T02:59:42.760Z,14.79
2019-06-08T03:02:12.922Z,14.91
2019-06-08T03:04:43.126Z,15.03
2019-06-08T03:07:13.292Z,15.10
2019-06-08T03:09:43.488Z,14.76
2019-06-08T03:12:13.693Z,14.76
2019-06-08T03:14:43.928Z,14.51
2019-06-08T03:17:14.145Z,14.51
2019-06-08T03:19:45.443Z,14.39
2019-06-08T03:22:15.636Z,14.52
2019-06-08T03:24:45.811Z,14.52
2019-06-08T03:27:16.004Z,14.63
2019-06-08T03:29:46.259Z,14.71
2019-06-08T03:32:16.470Z,14.88
2019-06-08T03:34:55.071Z,14.88
2019-06-08T03:37:18.607Z,15.02
2019-06-08T03:39:48.784Z,15.02
2019-06-08T03:42:19.269Z,15.14
2019-06-08T03:44:49.461Z,15.14
2019-06-08T03:47:19.673Z,15.19
2019-06-08T03:49:56.393Z,14.76
2019-06-08T03:52:21.739Z,14.76
2019-06-08T03:54:51.927Z,14.88
2019-06-08T03:57:22.154Z,14.95
2019-06-08T03:59:52.353Z,15.01
2019-06-08T04:02:22.592Z,15.01
2019-06-08T04:04:52.766Z,14.58
2019-06-08T04:07:23.000Z,14.55
2019-06-08T04:09:53.195Z,14.55
2019-06-08T04:12:23.363Z,14.50
2019-06-08T04:14:53.571Z,14.49
2019-06-08T04:17:23.762Z,14.49
2019-06-08T04:20:09.434Z,14.33
2019-06-08T04:22:25.857Z,14.27
2019-06-08T04:24:56.061Z,14.24
2019-06-08T04:27:26.252Z,14.18
2019-06-08T04:29:56.446Z,14.20
2019-06-08T04:32:26.604Z,14.24
2019-06-08T04:34:56.802Z,14.24
2019-06-08T04:37:26.992Z,14.28
2019-06-08T04:39:57.176Z,14.28
2019-06-08T04:42:27.802Z,14.36
2019-06-08T04:44:57.969Z,14.36
2019-06-08T04:47:28.199Z,14.38
2019-06-08T04:49:59.581Z,14.41
2019-06-08T04:52:29.968Z,14.46
2019-06-08T04:55:00.200Z,14.46
2019-06-08T04:57:31.429Z,14.57
2019-06-08T05:00:11.183Z,14.83
2019-06-08T05:02:33.852Z,14.83
2019-06-08T05:05:04.463Z,14.91
2019-06-08T05:07:35.657Z,14.93
2019-06-08T05:10:06.613Z,15.10
2019-06-08T05:12:36.844Z,15.40
2019-06-08T05:15:07.061Z,15.81
2019-06-08T05:17:37.257Z,15.74
2019-06-08T05:20:07.489Z,15.68
2019-06-08T05:22:39.277Z,15.75
2019-06-08T05:25:10.229Z,15.63
2019-06-08T05:27:41.207Z,15.65
2019-06-08T05:30:11.475Z,15.53
2019-06-08T05:32:41.647Z,15.60
2019-06-08T05:35:11.922Z,15.60
2019-06-08T05:37:43.564Z,15.63
2019-06-08T05:40:13.892Z,15.86
2019-06-08T05:42:44.239Z,16.03
2019-06-08T05:45:15.587Z,16.03
2019-06-08T05:47:45.888Z,16.43
2019-06-08T05:50:16.066Z,16.51
2019-06-08T05:52:46.274Z,16.42
2019-06-08T05:55:16.475Z,16.42
2019-06-08T05:57:46.661Z,16.37
2019-06-08T06:00:16.844Z,16.70
2019-06-08T06:02:47.192Z,16.85
2019-06-08T06:05:17.420Z,16.85
2019-06-08T06:07:48.895Z,16.80
2019-06-08T06:10:19.487Z,16.61
2019-06-08T06:12:51.066Z,16.61
2019-06-08T06:15:21.384Z,16.36
2019-06-08T06:17:51.689Z,17.22
2019-06-08T06:20:21.909Z,19.67
2019-06-08T06:22:52.531Z,19.67
2019-06-08T06:25:23.040Z,19.00
2019-06-08T06:27:53.232Z,19.00
2019-06-08T06:30:23.396Z,20.64
2019-06-08T06:32:53.631Z,20.64
2019-06-08T06:35:23.785Z,20.19
2019-06-08T06:37:54.070Z,22.02
2019-06-08T06:40:24.925Z,23.11
2019-06-08T06:42:55.145Z,23.85
2019-06-08T06:45:25.334Z,24.37
2019-06-08T06:47:55.615Z,24.37
2019-06-08T06:50:25.971Z,24.64
2019-06-08T06:52:58.133Z,24.64
2019-06-08T06:55:30.172Z,24.80
2019-06-08T06:58:00.365Z,24.42
2019-06-08T07:00:33.865Z,23.80
2019-06-08T07:03:04.085Z,23.80
2019-06-08T07:05:34.320Z,23.78
2019-06-08T07:08:04.526Z,23.46
2019-06-08T07:10:34.793Z,23.02
2019-06-08T07:13:05.055Z,23.02
2019-06-08T07:15:41.474Z,22.99
2019-06-08T07:18:07.123Z,22.26
2019-06-08T07:20:37.374Z,22.24
2019-06-08T07:23:07.558Z,22.61
2019-06-08T07:25:37.740Z,22.26
2019-06-08T07:28:07.922Z,22.24
2019-06-08T07:30:38.152Z,22.37
2019-06-08T07:33:08.384Z,22.22
2019-06-08T07:35:38.593Z,21.49
2019-06-08T07:38:08.910Z,21.73
2019-06-08T07:40:39.218Z,21.89
2019-06-08T07:43:09.443Z,21.89
2019-06-08T07:45:39.649Z,20.95
2019-06-08T07:48:09.841Z,21.41
2019-06-08T07:50:40.042Z,21.41
2019-06-08T07:53:10.291Z,21.57
2019-06-08T07:55:40.486Z,21.93
2019-06-08T07:58:10.667Z,21.78
2019-06-08T08:00:40.868Z,21.78
2019-06-08T08:03:12.124Z,22.04
2019-06-08T08:05:42.333Z,22.20
2019-06-08T08:08:12.641Z,21.82
2019-06-08T08:10:43.967Z,22.63
2019-06-08T08:13:14.257Z,22.63
2019-06-08T08:15:44.563Z,22.91
2019-06-08T08:18:14.767Z,22.91
2019-06-08T08:20:44.973Z,22.79
2019-06-08T08:23:17.344Z,22.40
2019-06-08T08:25:48.929Z,22.31
2019-06-08T08:28:19.626Z,22.47
2019-06-08T08:30:51.023Z,22.47
2019-06-08T08:33:21.722Z,22.73
2019-06-08T08:35:52.269Z,21.94
2019-06-08T08:38:24.186Z,21.81
2019-06-08T08:40:56.378Z,21.73
2019-06-08T08:43:28.062Z,22.02
2019-06-08T08:45:59.123Z,22.07
2019-06-08T08:48:31.732Z,21.82
2019-06-08T08:51:03.649Z,21.82
2019-06-08T08:53:34.104Z,21.98
2019-06-08T08:56:04.279Z,22.07
2019-06-08T08:58:34.509Z,22.07
2019-06-08T09:01:04.722Z,21.71
2019-06-08T09:03:34.909Z,21.68
2019-06-08T09:06:05.146Z,21.63
2019-06-08T09:08:37.573Z,21.63
2019-06-08T09:11:08.172Z,21.60
2019-06-08T09:13:38.527Z,21.90
2019-06-08T09:16:08.730Z,21.90
2019-06-08T09:18:38.945Z,22.09
2019-06-08T09:21:09.207Z,22.18
2019-06-08T09:23:39.632Z,22.09
2019-06-08T09:26:12.806Z,21.95
2019-06-08T09:28:41.702Z,21.97
2019-06-08T09:31:13.076Z,22.28
2019-06-08T09:33:53.349Z,22.28
2019-06-08T09:36:17.536Z,22.03
2019-06-08T09:38:47.935Z,21.93
2019-06-08T09:41:18.741Z,22.31
2019-06-08T09:43:49.022Z,22.31
2019-06-08T09:46:19.535Z,22.19
2019-06-08T09:48:49.887Z,22.25
2019-06-08T09:51:20.397Z,22.25
2019-06-08T09:53:50.571Z,22.67
2019-06-08T09:56:20.817Z,22.75
2019-06-08T09:58:51.469Z,22.72
2019-06-08T10:01:21.804Z,22.65
2019-06-08T10:03:52.008Z,22.65
2019-06-08T10:06:22.373Z,22.73
2019-06-08T10:08:54.190Z,22.93
2019-06-08T10:11:27.932Z,22.93
2019-06-08T10:14:01.618Z,23.55
2019-06-08T10:16:30.818Z,23.55
2019-06-08T10:19:03.931Z,23.51
2019-06-08T10:21:33.446Z,23.51
2019-06-08T10:24:06.336Z,24.06
2019-06-08T10:26:37.673Z,24.06
2019-06-08T10:29:10.143Z,23.73
2019-06-08T10:31:43.331Z,23.73
2019-06-08T10:34:12.129Z,24.06
2019-06-08T10:36:42.508Z,24.66
2019-06-08T10:39:12.737Z,24.66
2019-06-08T10:41:42.970Z,25.01
2019-06-08T10:44:14.249Z,24.65
2019-06-08T10:46:48.241Z,24.76
2019-06-08T10:49:18.787Z,24.76
2019-06-08T10:51:49.410Z,25.01
2019-06-08T10:54:19.666Z,24.29
2019-06-08T10:56:50.051Z,24.46
2019-06-08T10:59:20.363Z,24.46
2019-06-08T11:01:50.618Z,25.14
2019-06-08T11:04:20.835Z,25.42
2019-06-08T11:06:51.101Z,25.55
2019-06-08T11:09:21.493Z,25.24
2019-06-08T11:11:51.982Z,26.03
2019-06-08T11:14:22.916Z,26.00
2019-06-08T11:16:53.345Z,26.11
2019-06-08T11:19:26.407Z,25.97
2019-06-08T11:22:00.453Z,25.96
2019-06-08T11:24:28.941Z,25.96
2019-06-08T11:27:00.051Z,25.78
2019-06-08T11:29:31.483Z,26.85
2019-06-08T11:32:02.046Z,25.81
2019-06-08T11:34:32.557Z,26.23
2019-06-08T11:37:03.624Z,26.23
2019-06-08T11:39:34.845Z,27.18
2019-06-08T11:42:07.049Z,27.18
2019-06-08T11:44:39.018Z,27.67
2019-06-08T11:47:12.274Z,27.26
2019-06-08T11:49:41.312Z,26.76
2019-06-08T11:52:11.694Z,27.23
2019-06-08T11:54:41.955Z,27.23
2019-06-08T11:57:12.986Z,26.92
2019-06-08T11:59:43.891Z,26.92
2019-06-08T12:02:14.364Z,25.97
2019-06-08T12:04:44.719Z,25.97
2019-06-08T12:07:14.958Z,26.58
2019-06-08T12:09:45.155Z,26.58
2019-06-08T12:12:18.607Z,26.49
2019-06-08T12:14:47.691Z,27.08
2019-06-08T12:17:22.169Z,27.08
2019-06-08T12:19:49.850Z,27.19
2019-06-08T12:22:21.831Z,26.79
2019-06-08T12:24:51.937Z,26.67
2019-06-08T12:27:30.131Z,25.51
2019-06-08T12:29:54.016Z,25.84
2019-06-08T12:32:24.201Z,26.10
2019-06-08T12:34:54.563Z,26.10
2019-06-08T12:37:24.760Z,25.56
2019-06-08T12:39:54.936Z,24.95
2019-06-08T12:42:25.306Z,24.69
2019-06-08T12:44:55.534Z,24.24
2019-06-08T12:47:27.456Z,24.24
2019-06-08T12:49:58.464Z,24.33
2019-06-08T12:52:29.822Z,24.33
2019-06-08T12:55:06.613Z,24.14
2019-06-08T12:57:32.197Z,24.07
2019-06-08T13:00:02.391Z,24.01
2019-06-08T13:02:32.774Z,24.03
2019-06-08T13:05:04.020Z,24.04
2019-06-08T13:07:34.435Z,24.04
2019-06-08T13:10:05.231Z,24.30
2019-06-08T13:12:35.428Z,24.30
2019-06-08T13:15:08.454Z,24.09
2019-06-08T13:17:39.344Z,24.13
2019-06-08T13:20:21.833Z,23.98
2019-06-08T13:22:50.113Z,23.84
2019-06-08T13:25:36.198Z,23.75
2019-06-08T13:27:52.222Z,23.75
2019-06-08T13:30:26.020Z,23.90
2019-06-08T13:32:54.565Z,23.81
2019-06-08T13:35:24.762Z,23.83
2019-06-08T13:37:57.371Z,23.83
2019-06-08T13:40:26.871Z,23.63
2019-06-08T13:42:58.244Z,23.63
2019-06-08T13:45:28.495Z,23.63
2019-06-08T13:47:58.824Z,23.76
2019-06-08T13:50:29.057Z,23.88
2019-06-08T13:52:59.318Z,23.88
2019-06-08T13:55:48.101Z,23.90
2019-06-08T13:58:01.397Z,23.98
2019-06-08T14:00:38.092Z,24.00
2019-06-08T14:03:08.606Z,24.00
2019-06-08T14:05:39.202Z,23.77
2019-06-08T14:08:10.982Z,23.66
2019-06-08T14:10:41.446Z,23.73
2019-06-08T14:13:11.643Z,23.73
2019-06-08T14:15:41.823Z,23.79
2019-06-08T14:18:14.063Z,23.79
2019-06-08T14:20:44.271Z,23.76
2019-06-08T14:23:14.488Z,23.68
2019-06-08T14:25:53.661Z,23.79
2019-06-08T14:28:19.268Z,23.79
2019-06-08T14:30:48.551Z,23.82
2019-06-08T14:33:25.157Z,23.77
2019-06-08T14:35:53.015Z,23.66
2019-06-08T14:38:27.479Z,23.68
2019-06-08T14:40:54.530Z,23.72
2019-06-08T14:43:24.766Z,23.73
2019-06-08T14:45:57.972Z,23.73
2019-06-08T14:48:32.099Z,23.71
2019-06-08T14:50:59.642Z,23.66
2019-06-08T14:53:29.866Z,23.75
2019-06-08T14:56:08.202Z,23.75
2019-06-08T14:58:34.644Z,23.75
2019-06-08T15:01:03.875Z,23.75
2019-06-08T15:03:35.050Z,23.69
2019-06-08T15:06:07.497Z,23.75
2019-06-08T15:08:37.127Z,23.77
2019-06-08T15:11:08.121Z,23.78
2019-06-08T15:13:40.463Z,23.81
2019-06-08T15:16:10.353Z,23.73
2019-06-08T15:18:40.550Z,23.71
2019-06-08T15:21:10.712Z,23.71
2019-06-08T15:23:42.018Z,23.66
2019-06-08T15:26:23.152Z,23.71
2019-06-08T15:28:44.114Z,23.72
2019-06-08T15:31:14.347Z,23.74
2019-06-08T15:33:44.547Z,23.74
2019-06-08T15:36:14.783Z,23.69
2019-06-08T15:38:45.010Z,23.67
2019-06-08T15:41:18.049Z,23.60
2019-06-08T15:43:48.111Z,23.52
2019-06-08T15:46:18.521Z,23.52
2019-06-08T15:48:48.741Z,23.53
2019-06-08T15:51:18.908Z,23.58
2019-06-08T15:53:49.140Z,23.58
2019-06-08T15:56:19.335Z,23.53
2019-06-08T15:58:49.567Z,23.50
2019-06-08T16:01:19.764Z,23.48
2019-06-08T16:03:49.998Z,23.49
2019-06-08T16:09:14.603Z,23.43
2019-06-08T16:11:44.807Z,23.43
2019-06-08T16:14:14.983Z,23.49
2019-06-08T16:16:45.211Z,23.39
2019-06-08T16:19:15.422Z,23.39
2019-06-08T16:21:45.700Z,23.37
2019-06-08T16:24:15.911Z,23.37
2019-06-08T16:26:53.380Z,23.30
2019-06-08T16:29:18.151Z,23.30
2019-06-08T16:31:48.364Z,23.30
2019-06-08T16:34:18.549Z,23.26
2019-06-08T16:36:48.891Z,23.26
2019-06-08T16:39:19.089Z,23.23
2019-06-08T16:41:49.255Z,23.14
2019-06-08T16:44:19.434Z,23.01
2019-06-08T16:46:49.655Z,23.11
2019-06-08T16:49:20.895Z,23.09
2019-06-08T16:51:51.089Z,23.09
2019-06-08T16:54:21.294Z,23.01
2019-06-08T16:56:51.546Z,23.01
2019-06-08T16:59:21.729Z,22.86
2019-06-08T17:01:51.929Z,22.74
2019-06-08T17:04:22.166Z,22.72
2019-06-08T17:06:52.386Z,22.70
2019-06-08T17:09:22.552Z,22.70
2019-06-08T17:11:52.856Z,22.63
2019-06-08T17:14:25.108Z,22.63
2019-06-08T17:16:54.956Z,22.49
2019-06-08T17:19:25.255Z,22.46
2019-06-08T17:21:55.555Z,22.46
2019-06-08T17:24:25.747Z,22.46
2019-06-08T17:26:56.133Z,22.46
2019-06-08T17:29:26.440Z,22.31
2019-06-08T17:31:56.638Z,22.31
2019-06-08T17:34:26.832Z,22.31
2019-06-08T17:36:57.025Z,22.31
2019-06-08T17:39:29.358Z,22.29
2019-06-08T17:41:59.127Z,22.29
2019-06-08T17:44:29.324Z,22.20
2019-06-08T17:46:59.559Z,22.20
2019-06-08T17:49:29.735Z,22.13
2019-06-08T17:51:59.974Z,22.13
2019-06-08T17:54:30.147Z,21.98
2019-06-08T17:57:00.384Z,21.90
2019-06-08T17:59:30.815Z,21.88
2019-06-08T18:02:01.107Z,21.84
2019-06-08T18:04:31.312Z,21.78
2019-06-08T18:07:01.523Z,21.80
2019-06-08T18:09:31.711Z,21.80
2019-06-08T18:12:01.927Z,21.71
2019-06-08T18:14:32.092Z,21.80
2019-06-08T18:17:02.282Z,21.68
2019-06-08T18:19:32.509Z,21.69
2019-06-08T18:22:05.912Z,21.76
2019-06-08T18:24:34.593Z,21.76
2019-06-08T18:27:07.774Z,21.65
2019-06-08T18:29:39.671Z,21.58
2019-06-08T18:32:09.593Z,21.52
2019-06-08T18:34:40.656Z,21.52
2019-06-08T18:37:11.669Z,21.43
2019-06-08T18:39:43.308Z,21.43
2019-06-08T18:42:13.745Z,21.33
2019-06-08T18:44:44.485Z,21.33
2019-06-08T18:47:17.775Z,21.28
2019-06-08T18:49:48.413Z,20.86
2019-06-08T18:52:18.900Z,20.78
2019-06-08T18:54:49.830Z,20.70
2019-06-08T18:57:20.202Z,20.66
2019-06-08T18:59:52.928Z,20.66
2019-06-08T19:02:25.707Z,20.62
2019-06-08T19:04:57.198Z,20.60
2019-06-08T19:07:28.305Z,20.60
2019-06-08T19:09:58.633Z,20.45
2019-06-08T19:12:28.790Z,20.45
2019-06-08T19:14:58.995Z,20.43
2019-06-08T19:17:29.522Z,20.28
2019-06-08T19:19:59.999Z,20.21
2019-06-08T19:22:30.419Z,20.21
2019-06-08T19:25:00.759Z,20.19
2019-06-08T19:27:32.791Z,20.15
2019-06-08T19:30:03.010Z,20.07
2019-06-08T19:32:33.344Z,20.07
2019-06-08T19:35:03.540Z,19.97
2019-06-08T19:37:33.779Z,19.94
2019-06-08T19:40:03.997Z,19.85
2019-06-08T19:42:41.375Z,19.85
2019-06-08T19:45:08.625Z,19.79
2019-06-08T19:47:40.501Z,19.71
2019-06-08T19:50:10.054Z,19.64
2019-06-08T19:52:43.766Z,19.57
2019-06-08T19:55:12.779Z,19.48
2019-06-08T19:57:43.344Z,19.40
2019-06-08T20:00:13.614Z,19.11
2019-06-08T20:02:44.632Z,18.93
2019-06-08T20:05:17.462Z,18.85
2019-06-08T20:07:49.135Z,18.78
2019-06-08T20:10:19.468Z,18.78
2019-06-08T20:12:50.951Z,18.01
2019-06-08T20:15:21.313Z,18.01
2019-06-08T20:17:51.676Z,17.76
2019-06-08T20:20:22.007Z,17.76
2019-06-08T20:22:53.527Z,17.86
2019-06-08T20:25:27.910Z,18.07
2019-06-08T20:27:58.891Z,18.07
2019-06-08T20:30:29.263Z,18.07
2019-06-08T20:32:59.412Z,18.07
2019-06-08T20:35:29.637Z,17.33
2019-06-08T20:37:59.848Z,17.05
2019-06-08T20:40:30.404Z,16.87
2019-06-08T20:43:00.613Z,16.87
2019-06-08T20:45:31.188Z,16.62
2019-06-08T20:48:01.989Z,16.59
2019-06-08T20:50:32.159Z,16.60
2019-06-08T20:53:02.373Z,16.60
2019-06-08T20:55:34.029Z,16.44
2019-06-08T20:58:07.911Z,16.11
2019-06-08T21:00:41.496Z,16.11
2019-06-08T21:03:11.980Z,15.85
2019-06-08T21:05:42.196Z,15.96
2019-06-08T21:08:12.478Z,15.87
2019-06-08T21:10:42.687Z,15.86
2019-06-08T21:13:12.883Z,16.00
2019-06-08T21:15:44.385Z,16.08
2019-06-08T21:18:15.277Z,16.08
2019-06-08T21:20:46.930Z,16.52
2019-06-08T21:23:17.371Z,16.61
2019-06-08T21:25:50.821Z,16.71
2019-06-08T21:28:19.500Z,16.71
2019-06-08T21:30:53.355Z,16.81
2019-06-08T21:33:21.663Z,16.84
2019-06-08T21:35:55.747Z,16.84
2019-06-08T21:38:24.489Z,16.69
2019-06-08T21:40:59.883Z,16.69
2019-06-08T21:43:27.899Z,16.72
2019-06-08T21:46:00.928Z,16.24
2019-06-08T21:48:30.291Z,15.63
2019-06-08T21:51:01.724Z,15.50
2019-06-08T21:53:32.093Z,15.50
2019-06-08T21:56:02.319Z,15.32
2019-06-08T21:58:32.599Z,15.13
2019-06-08T22:01:04.103Z,15.38
2019-06-08T22:03:37.922Z,15.58
2019-06-08T22:06:08.095Z,15.58
2019-06-08T22:08:38.486Z,15.39
2019-06-08T22:11:09.328Z,15.39
2019-06-08T22:13:39.796Z,14.78
2019-06-08T22:16:09.986Z,14.67
2019-06-08T22:18:40.198Z,14.79
2019-06-08T22:21:10.436Z,14.82
2019-06-08T22:23:40.625Z,14.73
2019-06-08T22:26:10.842Z,14.87
2019-06-08T22:28:41.061Z,14.87
2019-06-08T22:31:11.430Z,14.99
2019-06-08T22:33:41.651Z,14.99
2019-06-08T22:36:12.734Z,14.99
2019-06-08T22:38:43.136Z,14.91
2019-06-08T22:41:13.322Z,14.73
2019-06-08T22:43:43.579Z,14.56
2019-06-08T22:46:13.825Z,14.56
2019-06-08T22:48:44.051Z,14.65
2019-06-08T22:51:14.220Z,14.51
2019-06-08T22:53:44.433Z,14.23
2019-06-08T22:56:14.673Z,14.23
2019-06-08T22:58:44.913Z,13.97
2019-06-08T23:01:15.140Z,13.92
2019-06-08T23:03:47.442Z,13.95
2019-06-08T23:06:17.819Z,14.21
2019-06-08T23:08:48.217Z,14.21
2019-06-08T23:11:18.650Z,14.21
2019-06-08T23:13:48.874Z,14.00
2019-06-08T23:16:19.093Z,14.00
2019-06-08T23:18:49.291Z,13.88
2019-06-08T23:21:19.526Z,13.79
2019-06-08T23:23:49.720Z,13.95
2019-06-08T23:26:19.940Z,14.15
2019-06-08T23:28:50.536Z,13.89
2019-06-08T23:31:25.195Z,13.80
2019-06-08T23:33:52.646Z,13.78
2019-06-08T23:36:46.008Z,13.83
2019-06-08T23:38:54.763Z,14.16
2019-06-08T23:41:27.132Z,14.34
2019-06-08T23:43:57.953Z,14.34
2019-06-08T23:46:28.162Z,14.54
2019-06-08T23:49:00.657Z,14.54
2019-06-08T23:51:30.272Z,14.55
2019-06-08T23:54:02.336Z,14.50
2019-06-08T23:56:32.484Z,14.34
2019-06-08T23:59:03.149Z,14.34
